sensor_id;sensor_type;location;lat;lon;timestamp;pressure;altitude;pressure_sealevel;temperature;humidity
80149;BME280;69473;42.426;26.644;2024-01-10T00:01:19;100128.97;;;-4.12;46.77
80149;BME280;69473;42.426;26.644;2024-01-10T00:03:46;100131.44;;;-4.02;46.71
80149;BME280;69473;42.426;26.644;2024-01-10T00:06:11;100133.19;;;-4.01;45.33
80149;BME280;69473;42.426;26.644;2024-01-10T00:08:37;100130.75;;;-3.87;45.95
80149;BME280;69473;42.426;26.644;2024-01-10T00:11:03;100126.78;;;-4.07;45.10
80149;BME280;69473;42.426;26.644;2024-01-10T00:13:31;100144.16;;;-4.12;46.91
80149;BME280;69473;42.426;26.644;2024-01-10T00:15:57;100136.03;;;-4.08;46.00
80149;BME280;69473;42.426;26.644;2024-01-10T00:18:25;100136.94;;;-3.96;45.82
80149;BME280;69473;42.426;26.644;2024-01-10T00:20:53;100136.69;;;-4.10;45.72
80149;BME280;69473;42.426;26.644;2024-01-10T00:23:22;100145.03;;;-4.11;46.52
80149;BME280;69473;42.426;26.644;2024-01-10T00:25:48;100144.81;;;-4.14;47.69
80149;BME280;69473;42.426;26.644;2024-01-10T00:28:14;100153.84;;;-4.18;46.77
80149;BME280;69473;42.426;26.644;2024-01-10T00:30:42;100156.94;;;-4.10;45.12
80149;BME280;69473;42.426;26.644;2024-01-10T00:33:07;100149.91;;;-4.03;45.90
80149;BME280;69473;42.426;26.644;2024-01-10T00:35:33;100152.97;;;-4.07;45.92
80149;BME280;69473;42.426;26.644;2024-01-10T00:37:58;100161.09;;;-4.23;47.78
80149;BME280;69473;42.426;26.644;2024-01-10T00:40:24;100153.38;;;-4.24;47.64
80149;BME280;69473;42.426;26.644;2024-01-10T00:42:49;100163.50;;;-4.24;47.13
80149;BME280;69473;42.426;26.644;2024-01-10T00:45:16;100166.59;;;-4.28;47.29
80149;BME280;69473;42.426;26.644;2024-01-10T00:47:42;100164.81;;;-4.29;46.96
80149;BME280;69473;42.426;26.644;2024-01-10T00:50:08;100167.88;;;-4.45;46.94
80149;BME280;69473;42.426;26.644;2024-01-10T00:52:34;100163.91;;;-4.42;48.05
80149;BME280;69473;42.426;26.644;2024-01-10T00:54:59;100170.03;;;-4.50;48.02
80149;BME280;69473;42.426;26.644;2024-01-10T00:57:25;100170.25;;;-4.47;47.11
80149;BME280;69473;42.426;26.644;2024-01-10T00:59:50;100156.16;;;-4.55;47.44
80149;BME280;69473;42.426;26.644;2024-01-10T01:02:16;100168.84;;;-4.43;46.60
80149;BME280;69473;42.426;26.644;2024-01-10T01:04:42;100151.78;;;-4.46;47.12
80149;BME280;69473;42.426;26.644;2024-01-10T01:07:07;100160.00;;;-4.26;47.41
80149;BME280;69473;42.426;26.644;2024-01-10T01:09:34;100166.81;;;-4.25;46.32
80149;BME280;69473;42.426;26.644;2024-01-10T01:12:00;100150.94;;;-4.34;46.78
80149;BME280;69473;42.426;26.644;2024-01-10T01:14:25;100155.00;;;-4.36;45.30
80149;BME280;69473;42.426;26.644;2024-01-10T01:16:52;100149.41;;;-4.32;45.21
80149;BME280;69473;42.426;26.644;2024-01-10T01:19:17;100150.47;;;-4.41;44.71
80149;BME280;69473;42.426;26.644;2024-01-10T01:21:43;100156.91;;;-4.22;44.80
80149;BME280;69473;42.426;26.644;2024-01-10T01:24:09;100156.69;;;-4.25;45.02
80149;BME280;69473;42.426;26.644;2024-01-10T01:26:35;100152.75;;;-4.10;44.21
80149;BME280;69473;42.426;26.644;2024-01-10T01:29:00;100142.75;;;-4.20;44.68
80149;BME280;69473;42.426;26.644;2024-01-10T01:31:26;100144.34;;;-4.21;44.75
80149;BME280;69473;42.426;26.644;2024-01-10T01:33:51;100144.25;;;-4.22;44.54
80149;BME280;69473;42.426;26.644;2024-01-10T01:36:17;100130.75;;;-4.11;43.42
80149;BME280;69473;42.426;26.644;2024-01-10T01:38:43;100150.09;;;-4.23;44.00
80149;BME280;69473;42.426;26.644;2024-01-10T01:41:08;100148.31;;;-4.36;43.42
80149;BME280;69473;42.426;26.644;2024-01-10T01:43:34;100142.34;;;-4.36;44.10
80149;BME280;69473;42.426;26.644;2024-01-10T01:46:01;100150.72;;;-4.37;43.79
80149;BME280;69473;42.426;26.644;2024-01-10T01:48:28;100155.78;;;-4.37;44.14
80149;BME280;69473;42.426;26.644;2024-01-10T01:51:00;100148.09;;;-4.27;44.01
80149;BME280;69473;42.426;26.644;2024-01-10T01:53:28;100147.41;;;-4.36;43.65
80149;BME280;69473;42.426;26.644;2024-01-10T01:55:55;100151.78;;;-4.46;43.60
80149;BME280;69473;42.426;26.644;2024-01-10T01:58:21;100144.13;;;-4.35;44.09
80149;BME280;69473;42.426;26.644;2024-01-10T02:00:48;100152.25;;;-4.39;44.44
80149;BME280;69473;42.426;26.644;2024-01-10T02:03:14;100153.34;;;-4.48;43.83
80149;BME280;69473;42.426;26.644;2024-01-10T02:05:40;100168.50;;;-4.48;44.18
80149;BME280;69473;42.426;26.644;2024-01-10T02:08:06;100165.94;;;-4.81;43.90
80149;BME280;69473;42.426;26.644;2024-01-10T02:10:31;100159.63;;;-4.76;43.30
80149;BME280;69473;42.426;26.644;2024-01-10T02:12:57;100156.34;;;-4.63;43.69
80149;BME280;69473;42.426;26.644;2024-01-10T02:15:24;100158.91;;;-4.85;43.79
80149;BME280;69473;42.426;26.644;2024-01-10T02:17:49;100159.41;;;-4.90;45.01
80149;BME280;69473;42.426;26.644;2024-01-10T02:20:16;100161.72;;;-4.93;44.97
80149;BME280;69473;42.426;26.644;2024-01-10T02:22:46;100160.44;;;-4.88;44.27
80149;BME280;69473;42.426;26.644;2024-01-10T02:25:13;100163.41;;;-4.81;44.64
80149;BME280;69473;42.426;26.644;2024-01-10T02:27:40;100165.00;;;-4.94;44.93
80149;BME280;69473;42.426;26.644;2024-01-10T02:30:07;100159.72;;;-4.97;45.23
80149;BME280;69473;42.426;26.644;2024-01-10T02:32:33;100152.44;;;-5.04;44.38
80149;BME280;69473;42.426;26.644;2024-01-10T02:34:59;100173.63;;;-5.02;45.68
80149;BME280;69473;42.426;26.644;2024-01-10T02:37:25;100170.88;;;-5.05;45.25
80149;BME280;69473;42.426;26.644;2024-01-10T02:39:51;100164.94;;;-5.05;46.24
80149;BME280;69473;42.426;26.644;2024-01-10T02:42:17;100172.41;;;-5.07;45.94
80149;BME280;69473;42.426;26.644;2024-01-10T02:44:43;100168.31;;;-4.95;46.48
80149;BME280;69473;42.426;26.644;2024-01-10T02:47:09;100177.72;;;-5.04;45.99
80149;BME280;69473;42.426;26.644;2024-01-10T02:49:35;100168.56;;;-4.92;45.80
80149;BME280;69473;42.426;26.644;2024-01-10T02:52:01;100170.41;;;-5.11;45.77
80149;BME280;69473;42.426;26.644;2024-01-10T02:54:26;100167.84;;;-5.01;45.82
80149;BME280;69473;42.426;26.644;2024-01-10T02:56:52;100175.44;;;-5.11;46.63
80149;BME280;69473;42.426;26.644;2024-01-10T02:59:17;100168.56;;;-4.92;46.34
80149;BME280;69473;42.426;26.644;2024-01-10T03:01:43;100177.34;;;-4.87;46.10
80149;BME280;69473;42.426;26.644;2024-01-10T03:04:09;100165.25;;;-4.91;46.09
80149;BME280;69473;42.426;26.644;2024-01-10T03:06:35;100154.19;;;-5.03;45.68
80149;BME280;69473;42.426;26.644;2024-01-10T03:09:00;100150.88;;;-5.02;46.48
80149;BME280;69473;42.426;26.644;2024-01-10T03:11:26;100153.47;;;-5.12;45.84
80149;BME280;69473;42.426;26.644;2024-01-10T03:14:01;100149.47;;;-5.20;46.56
80149;BME280;69473;42.426;26.644;2024-01-10T03:16:27;100151.44;;;-5.06;46.76
80149;BME280;69473;42.426;26.644;2024-01-10T03:18:52;100142.50;;;-4.91;46.71
80149;BME280;69473;42.426;26.644;2024-01-10T03:21:18;100146.94;;;-5.20;46.68
80149;BME280;69473;42.426;26.644;2024-01-10T03:23:54;100154.13;;;-5.15;46.77
80149;BME280;69473;42.426;26.644;2024-01-10T03:26:20;100153.06;;;-5.06;47.37
80149;BME280;69473;42.426;26.644;2024-01-10T03:28:46;100117.31;;;-5.33;46.79
80149;BME280;69473;42.426;26.644;2024-01-10T03:31:11;100141.94;;;-5.30;47.21
80149;BME280;69473;42.426;26.644;2024-01-10T03:33:37;100145.72;;;-5.25;47.64
80149;BME280;69473;42.426;26.644;2024-01-10T03:36:03;100151.25;;;-5.19;46.92
80149;BME280;69473;42.426;26.644;2024-01-10T03:38:29;100146.91;;;-5.10;47.09
80149;BME280;69473;42.426;26.644;2024-01-10T03:40:54;100145.84;;;-5.02;47.36
80149;BME280;69473;42.426;26.644;2024-01-10T03:43:20;100138.56;;;-5.09;47.39
80149;BME280;69473;42.426;26.644;2024-01-10T03:45:45;100140.28;;;-4.98;47.59
80149;BME280;69473;42.426;26.644;2024-01-10T03:48:11;100143.13;;;-4.93;46.50
80149;BME280;69473;42.426;26.644;2024-01-10T03:50:36;100151.13;;;-4.99;47.25
80149;BME280;69473;42.426;26.644;2024-01-10T03:53:02;100148.09;;;-4.95;46.91
80149;BME280;69473;42.426;26.644;2024-01-10T03:55:27;100148.72;;;-4.97;46.49
80149;BME280;69473;42.426;26.644;2024-01-10T03:57:53;100145.09;;;-5.01;47.36
80149;BME280;69473;42.426;26.644;2024-01-10T04:00:19;100132.91;;;-4.95;47.20
80149;BME280;69473;42.426;26.644;2024-01-10T04:02:45;100141.94;;;-4.87;47.43
80149;BME280;69473;42.426;26.644;2024-01-10T04:05:11;100141.72;;;-4.90;47.52
80149;BME280;69473;42.426;26.644;2024-01-10T04:07:40;100135.16;;;-4.88;47.25
80149;BME280;69473;42.426;26.644;2024-01-10T04:10:07;100136.91;;;-4.87;47.27
80149;BME280;69473;42.426;26.644;2024-01-10T04:12:38;100133.63;;;-4.85;46.82
80149;BME280;69473;42.426;26.644;2024-01-10T04:15:05;100138.44;;;-4.89;47.13
80149;BME280;69473;42.426;26.644;2024-01-10T04:17:30;100134.91;;;-4.91;46.93
80149;BME280;69473;42.426;26.644;2024-01-10T04:19:56;100145.25;;;-4.88;47.04
80149;BME280;69473;42.426;26.644;2024-01-10T04:22:23;100141.69;;;-5.01;47.48
80149;BME280;69473;42.426;26.644;2024-01-10T04:24:49;100144.16;;;-4.91;47.26
80149;BME280;69473;42.426;26.644;2024-01-10T04:27:15;100143.53;;;-4.77;47.21
80149;BME280;69473;42.426;26.644;2024-01-10T04:29:41;100147.00;;;-4.87;47.29
80149;BME280;69473;42.426;26.644;2024-01-10T04:32:07;100156.66;;;-4.93;46.77
80149;BME280;69473;42.426;26.644;2024-01-10T04:34:33;100149.03;;;-4.82;47.06
80149;BME280;69473;42.426;26.644;2024-01-10T04:36:58;100150.53;;;-4.84;47.43
80149;BME280;69473;42.426;26.644;2024-01-10T04:39:24;100146.84;;;-5.00;46.91
80149;BME280;69473;42.426;26.644;2024-01-10T04:41:50;100159.47;;;-5.00;47.49
80149;BME280;69473;42.426;26.644;2024-01-10T04:44:15;100154.91;;;-4.94;47.68
80149;BME280;69473;42.426;26.644;2024-01-10T04:46:41;100177.47;;;-5.07;47.61
80149;BME280;69473;42.426;26.644;2024-01-10T04:49:07;100179.00;;;-5.09;47.74
80149;BME280;69473;42.426;26.644;2024-01-10T04:51:33;100185.06;;;-5.17;47.66
80149;BME280;69473;42.426;26.644;2024-01-10T04:53:58;100193.44;;;-5.18;48.00
80149;BME280;69473;42.426;26.644;2024-01-10T04:56:25;100202.13;;;-5.15;47.19
80149;BME280;69473;42.426;26.644;2024-01-10T04:58:51;100208.28;;;-5.01;47.59
80149;BME280;69473;42.426;26.644;2024-01-10T05:01:17;100227.53;;;-5.13;47.12
80149;BME280;69473;42.426;26.644;2024-01-10T05:03:43;100233.78;;;-5.30;47.42
80149;BME280;69473;42.426;26.644;2024-01-10T05:06:08;100250.09;;;-5.26;47.28
80149;BME280;69473;42.426;26.644;2024-01-10T05:08:34;100263.47;;;-5.27;47.24
80149;BME280;69473;42.426;26.644;2024-01-10T05:11:00;100274.13;;;-5.42;47.83
80149;BME280;69473;42.426;26.644;2024-01-10T05:13:25;100279.41;;;-5.39;47.35
80149;BME280;69473;42.426;26.644;2024-01-10T05:15:51;100299.13;;;-5.55;46.69
80149;BME280;69473;42.426;26.644;2024-01-10T05:18:17;100306.84;;;-5.53;46.55
80149;BME280;69473;42.426;26.644;2024-01-10T05:20:44;100306.84;;;-5.64;47.43
80149;BME280;69473;42.426;26.644;2024-01-10T05:23:09;100315.53;;;-5.40;46.56
80149;BME280;69473;42.426;26.644;2024-01-10T05:25:36;100320.72;;;-5.59;47.58
80149;BME280;69473;42.426;26.644;2024-01-10T05:28:02;100330.94;;;-5.47;47.78
80149;BME280;69473;42.426;26.644;2024-01-10T05:30:27;100332.19;;;-5.52;48.01
80149;BME280;69473;42.426;26.644;2024-01-10T05:32:53;100323.59;;;-5.34;47.48
80149;BME280;69473;42.426;26.644;2024-01-10T05:35:19;100342.31;;;-5.52;46.98
80149;BME280;69473;42.426;26.644;2024-01-10T05:37:44;100339.03;;;-5.71;47.75
80149;BME280;69473;42.426;26.644;2024-01-10T05:40:10;100344.34;;;-5.48;46.02
80149;BME280;69473;42.426;26.644;2024-01-10T05:42:36;100338.53;;;-5.57;47.35
80149;BME280;69473;42.426;26.644;2024-01-10T05:45:04;100338.53;;;-5.77;47.39
80149;BME280;69473;42.426;26.644;2024-01-10T05:47:30;100345.72;;;-5.62;47.61
80149;BME280;69473;42.426;26.644;2024-01-10T05:49:55;100344.59;;;-5.45;47.00
80149;BME280;69473;42.426;26.644;2024-01-10T05:52:21;100346.22;;;-5.35;46.54
80149;BME280;69473;42.426;26.644;2024-01-10T05:54:48;100349.25;;;-5.29;46.95
80149;BME280;69473;42.426;26.644;2024-01-10T05:57:16;100355.97;;;-5.29;46.87
80149;BME280;69473;42.426;26.644;2024-01-10T05:59:42;100355.22;;;-5.39;47.80
80149;BME280;69473;42.426;26.644;2024-01-10T06:02:07;100360.00;;;-5.62;47.54
80149;BME280;69473;42.426;26.644;2024-01-10T06:04:33;100365.56;;;-5.56;48.32
80149;BME280;69473;42.426;26.644;2024-01-10T06:06:59;100361.78;;;-5.51;48.89
80149;BME280;69473;42.426;26.644;2024-01-10T06:09:24;100366.06;;;-5.29;48.33
80149;BME280;69473;42.426;26.644;2024-01-10T06:11:50;100367.31;;;-5.35;48.43
80149;BME280;69473;42.426;26.644;2024-01-10T06:14:16;100366.06;;;-5.29;47.89
80149;BME280;69473;42.426;26.644;2024-01-10T06:16:41;100381.47;;;-5.26;47.80
80149;BME280;69473;42.426;26.644;2024-01-10T06:19:07;100377.88;;;-4.98;46.73
80149;BME280;69473;42.426;26.644;2024-01-10T06:21:32;100378.13;;;-5.05;47.10
80149;BME280;69473;42.426;26.644;2024-01-10T06:23:58;100385.09;;;-5.13;47.36
80149;BME280;69473;42.426;26.644;2024-01-10T06:26:24;100383.47;;;-5.22;46.64
80149;BME280;69473;42.426;26.644;2024-01-10T06:28:49;100388.03;;;-5.28;47.02
80149;BME280;69473;42.426;26.644;2024-01-10T06:31:15;100391.16;;;-5.21;47.59
80149;BME280;69473;42.426;26.644;2024-01-10T06:33:40;100393.28;;;-5.05;47.74
80149;BME280;69473;42.426;26.644;2024-01-10T06:36:06;100396.03;;;-4.81;46.84
80149;BME280;69473;42.426;26.644;2024-01-10T06:38:32;100401.88;;;-4.82;46.92
80149;BME280;69473;42.426;26.644;2024-01-10T06:40:58;100403.13;;;-4.88;47.53
80149;BME280;69473;42.426;26.644;2024-01-10T06:43:23;100406.41;;;-4.78;47.16
80149;BME280;69473;42.426;26.644;2024-01-10T06:45:49;100413.75;;;-4.81;46.80
80149;BME280;69473;42.426;26.644;2024-01-10T06:48:15;100415.75;;;-4.77;46.91
80149;BME280;69473;42.426;26.644;2024-01-10T06:50:41;100419.69;;;-4.81;47.22
80149;BME280;69473;42.426;26.644;2024-01-10T06:53:06;100420.56;;;-4.80;46.91
80149;BME280;69473;42.426;26.644;2024-01-10T06:55:33;100424.84;;;-4.69;47.37
80149;BME280;69473;42.426;26.644;2024-01-10T06:57:59;100427.09;;;-4.62;46.99
80149;BME280;69473;42.426;26.644;2024-01-10T07:00:24;100430.41;;;-4.63;47.05
80149;BME280;69473;42.426;26.644;2024-01-10T07:02:50;100420.53;;;-4.60;47.07
80149;BME280;69473;42.426;26.644;2024-01-10T07:05:15;100437.72;;;-4.56;47.38
80149;BME280;69473;42.426;26.644;2024-01-10T07:07:41;100426.06;;;-4.54;47.15
80149;BME280;69473;42.426;26.644;2024-01-10T07:10:07;100425.69;;;-4.48;47.49
80149;BME280;69473;42.426;26.644;2024-01-10T07:12:36;100427.78;;;-4.32;46.84
80149;BME280;69473;42.426;26.644;2024-01-10T07:15:02;100429.53;;;-4.31;46.03
80149;BME280;69473;42.426;26.644;2024-01-10T07:17:28;100445.34;;;-4.34;46.79
80149;BME280;69473;42.426;26.644;2024-01-10T07:19:54;100439.25;;;-4.26;47.52
80149;BME280;69473;42.426;26.644;2024-01-10T07:22:22;100430.97;;;-4.13;46.85
80149;BME280;69473;42.426;26.644;2024-01-10T07:24:48;100443.09;;;-4.09;46.31
80149;BME280;69473;42.426;26.644;2024-01-10T07:27:14;100435.28;;;-4.12;46.54
80149;BME280;69473;42.426;26.644;2024-01-10T07:29:40;100435.81;;;-4.16;46.59
80149;BME280;69473;42.426;26.644;2024-01-10T07:32:06;100440.47;;;-4.10;46.52
80149;BME280;69473;42.426;26.644;2024-01-10T07:34:37;100449.38;;;-3.93;46.31
80149;BME280;69473;42.426;26.644;2024-01-10T07:37:03;100446.88;;;-4.04;46.60
80149;BME280;69473;42.426;26.644;2024-01-10T07:39:29;100449.13;;;-3.97;46.15
80149;BME280;69473;42.426;26.644;2024-01-10T07:41:55;100438.81;;;-3.88;45.95
80149;BME280;69473;42.426;26.644;2024-01-10T07:44:21;100447.59;;;-3.95;45.66
80149;BME280;69473;42.426;26.644;2024-01-10T07:46:47;100445.00;;;-3.84;46.10
80149;BME280;69473;42.426;26.644;2024-01-10T07:49:12;100439.78;;;-3.76;46.21
80149;BME280;69473;42.426;26.644;2024-01-10T07:51:38;100444.66;;;-3.67;46.05
80149;BME280;69473;42.426;26.644;2024-01-10T07:54:03;100445.19;;;-3.71;46.07
80149;BME280;69473;42.426;26.644;2024-01-10T07:56:29;100449.91;;;-3.76;45.18
80149;BME280;69473;42.426;26.644;2024-01-10T07:58:55;100444.19;;;-3.73;45.29
80149;BME280;69473;42.426;26.644;2024-01-10T08:01:21;100451.13;;;-3.49;45.37
80149;BME280;69473;42.426;26.644;2024-01-10T08:03:46;100456.16;;;-3.60;44.88
80149;BME280;69473;42.426;26.644;2024-01-10T08:06:12;100445.41;;;-3.68;45.64
80149;BME280;69473;42.426;26.644;2024-01-10T08:08:39;100451.09;;;-3.60;45.77
80149;BME280;69473;42.426;26.644;2024-01-10T08:11:04;100443.06;;;-3.55;45.90
80149;BME280;69473;42.426;26.644;2024-01-10T08:13:30;100447.84;;;-3.47;45.55
80149;BME280;69473;42.426;26.644;2024-01-10T08:15:56;100441.00;;;-3.49;45.07
80149;BME280;69473;42.426;26.644;2024-01-10T08:18:23;100451.38;;;-3.45;45.53
80149;BME280;69473;42.426;26.644;2024-01-10T08:20:48;100440.38;;;-3.34;45.58
80149;BME280;69473;42.426;26.644;2024-01-10T08:23:14;100441.94;;;-3.36;45.75
80149;BME280;69473;42.426;26.644;2024-01-10T08:25:40;100441.97;;;-3.46;45.59
80149;BME280;69473;42.426;26.644;2024-01-10T08:28:06;100440.69;;;-3.41;46.49
80149;BME280;69473;42.426;26.644;2024-01-10T08:30:31;100434.00;;;-3.29;46.22
80149;BME280;69473;42.426;26.644;2024-01-10T08:32:57;100430.69;;;-3.28;45.81
80149;BME280;69473;42.426;26.644;2024-01-10T08:35:23;100429.41;;;-3.23;46.02
80149;BME280;69473;42.426;26.644;2024-01-10T08:37:49;100430.38;;;-3.21;45.41
80149;BME280;69473;42.426;26.644;2024-01-10T08:40:14;100433.91;;;-3.19;45.90
80149;BME280;69473;42.426;26.644;2024-01-10T08:42:42;100430.31;;;-3.11;46.06
80149;BME280;69473;42.426;26.644;2024-01-10T08:45:08;100430.41;;;-3.09;46.04
80149;BME280;69473;42.426;26.644;2024-01-10T08:47:35;100433.38;;;-3.15;46.62
80149;BME280;69473;42.426;26.644;2024-01-10T08:50:05;100435.38;;;-3.11;46.46
80149;BME280;69473;42.426;26.644;2024-01-10T08:52:34;100433.53;;;-3.02;46.37
80149;BME280;69473;42.426;26.644;2024-01-10T08:55:01;100436.06;;;-3.02;46.41
80149;BME280;69473;42.426;26.644;2024-01-10T08:57:26;100439.56;;;-2.99;46.74
80149;BME280;69473;42.426;26.644;2024-01-10T08:59:53;100438.72;;;-2.88;46.84
80149;BME280;69473;42.426;26.644;2024-01-10T09:02:19;100425.50;;;-2.84;45.78
80149;BME280;69473;42.426;26.644;2024-01-10T09:04:44;100441.72;;;-2.70;45.54
80149;BME280;69473;42.426;26.644;2024-01-10T09:07:10;100443.41;;;-2.71;45.23
80149;BME280;69473;42.426;26.644;2024-01-10T09:09:36;100431.91;;;-2.66;45.42
80149;BME280;69473;42.426;26.644;2024-01-10T09:12:01;100433.91;;;-2.62;45.21
80149;BME280;69473;42.426;26.644;2024-01-10T09:14:28;100423.75;;;-2.62;44.76
80149;BME280;69473;42.426;26.644;2024-01-10T09:16:54;100420.22;;;-2.64;45.98
80149;BME280;69473;42.426;26.644;2024-01-10T09:19:19;100415.16;;;-2.64;45.45
80149;BME280;69473;42.426;26.644;2024-01-10T09:21:45;100402.56;;;-2.50;46.11
80149;BME280;69473;42.426;26.644;2024-01-10T09:24:11;100396.38;;;-2.42;44.90
80149;BME280;69473;42.426;26.644;2024-01-10T09:26:39;100397.69;;;-2.47;45.04
80149;BME280;69473;42.426;26.644;2024-01-10T09:29:06;100388.63;;;-2.32;44.40
80149;BME280;69473;42.426;26.644;2024-01-10T09:31:31;100394.38;;;-2.46;45.12
80149;BME280;69473;42.426;26.644;2024-01-10T09:33:57;100393.28;;;-2.38;45.35
80149;BME280;69473;42.426;26.644;2024-01-10T09:36:23;100399.88;;;-2.28;45.48
80149;BME280;69473;42.426;26.644;2024-01-10T09:38:48;100402.41;;;-2.17;45.34
80149;BME280;69473;42.426;26.644;2024-01-10T09:41:14;100397.09;;;-2.08;45.57
80149;BME280;69473;42.426;26.644;2024-01-10T09:43:41;100396.84;;;-1.99;44.97
80149;BME280;69473;42.426;26.644;2024-01-10T09:46:07;100401.41;;;-1.82;44.39
80149;BME280;69473;42.426;26.644;2024-01-10T09:48:33;100404.72;;;-1.71;43.73
80149;BME280;69473;42.426;26.644;2024-01-10T09:50:59;100393.00;;;-1.81;44.04
80149;BME280;69473;42.426;26.644;2024-01-10T09:53:26;100390.56;;;-1.68;44.04
80149;BME280;69473;42.426;26.644;2024-01-10T09:55:53;100389.19;;;-1.63;43.28
80149;BME280;69473;42.426;26.644;2024-01-10T09:58:24;100388.84;;;-1.55;43.97
80149;BME280;69473;42.426;26.644;2024-01-10T10:00:50;100381.03;;;-1.45;44.23
80149;BME280;69473;42.426;26.644;2024-01-10T10:03:17;100384.78;;;-1.40;44.24
80149;BME280;69473;42.426;26.644;2024-01-10T10:05:44;100369.16;;;-1.20;43.52
80149;BME280;69473;42.426;26.644;2024-01-10T10:08:14;100373.06;;;-1.25;43.21
80149;BME280;69473;42.426;26.644;2024-01-10T10:10:49;100364.69;;;-1.10;43.64
80149;BME280;69473;42.426;26.644;2024-01-10T10:13:28;100373.66;;;-1.16;43.57
80149;BME280;69473;42.426;26.644;2024-01-10T10:16:02;100360.69;;;-1.07;43.80
80149;BME280;69473;42.426;26.644;2024-01-10T10:18:28;100362.34;;;-0.94;43.00
80149;BME280;69473;42.426;26.644;2024-01-10T10:21:11;100361.38;;;-0.83;42.84
80149;BME280;69473;42.426;26.644;2024-01-10T10:23:39;100355.91;;;-0.76;43.07
80149;BME280;69473;42.426;26.644;2024-01-10T10:26:16;100348.66;;;-0.70;42.10
80149;BME280;69473;42.426;26.644;2024-01-10T10:28:47;100343.00;;;-0.65;42.96
80149;BME280;69473;42.426;26.644;2024-01-10T10:31:13;100336.69;;;-0.44;43.09
80149;BME280;69473;42.426;26.644;2024-01-10T10:33:40;100338.75;;;-0.10;42.02
80149;BME280;69473;42.426;26.644;2024-01-10T10:36:06;100336.78;;;0.42;40.48
80149;BME280;69473;42.426;26.644;2024-01-10T10:38:32;100333.47;;;0.58;41.22
80149;BME280;69473;42.426;26.644;2024-01-10T10:40:59;100328.09;;;0.53;40.95
80149;BME280;69473;42.426;26.644;2024-01-10T10:43:25;100326.47;;;0.26;40.88
80149;BME280;69473;42.426;26.644;2024-01-10T10:45:52;100323.41;;;0.03;41.26
80149;BME280;69473;42.426;26.644;2024-01-10T10:48:19;100320.09;;;0.04;40.24
80149;BME280;69473;42.426;26.644;2024-01-10T10:51:03;100325.63;;;-0.03;41.43
80149;BME280;69473;42.426;26.644;2024-01-10T10:53:29;100318.25;;;0.02;41.29
80149;BME280;69473;42.426;26.644;2024-01-10T10:55:57;100312.47;;;0.04;41.87
80149;BME280;69473;42.426;26.644;2024-01-10T10:58:24;100315.78;;;0.03;41.43
80149;BME280;69473;42.426;26.644;2024-01-10T11:00:51;100309.84;;;0.17;41.54
80149;BME280;69473;42.426;26.644;2024-01-10T11:03:18;100305.28;;;0.27;41.23
80149;BME280;69473;42.426;26.644;2024-01-10T11:05:45;100306.09;;;0.26;41.67
80149;BME280;69473;42.426;26.644;2024-01-10T11:08:15;100299.34;;;0.41;41.63
80149;BME280;69473;42.426;26.644;2024-01-10T11:10:44;100299.16;;;0.67;40.82
80149;BME280;69473;42.426;26.644;2024-01-10T11:13:27;100303.22;;;0.79;39.91
80149;BME280;69473;42.426;26.644;2024-01-10T11:23:59;100281.78;;;1.69;37.89
80149;BME280;69473;42.426;26.644;2024-01-10T11:26:25;100281.28;;;1.92;37.66
80149;BME280;69473;42.426;26.644;2024-01-10T11:28:51;100280.63;;;2.29;37.23
80149;BME280;69473;42.426;26.644;2024-01-10T11:31:30;100273.88;;;2.47;36.68
80149;BME280;69473;42.426;26.644;2024-01-10T11:33:57;100269.59;;;2.46;37.10
80149;BME280;69473;42.426;26.644;2024-01-10T11:36:24;100268.72;;;2.64;36.67
80149;BME280;69473;42.426;26.644;2024-01-10T11:46:37;100259.88;;;2.23;36.54
80149;BME280;69473;42.426;26.644;2024-01-10T11:49:03;100256.06;;;1.98;36.39
80149;BME280;69473;42.426;26.644;2024-01-10T11:51:29;100253.19;;;1.92;36.65
80149;BME280;69473;42.426;26.644;2024-01-10T11:53:55;100252.06;;;2.03;36.39
80149;BME280;69473;42.426;26.644;2024-01-10T11:56:22;100248.53;;;2.01;36.98
80149;BME280;69473;42.426;26.644;2024-01-10T11:58:55;100244.78;;;2.11;37.22
80149;BME280;69473;42.426;26.644;2024-01-10T12:01:22;100250.91;;;2.15;36.26
80149;BME280;69473;42.426;26.644;2024-01-10T12:03:51;100248.91;;;2.60;36.25
80149;BME280;69473;42.426;26.644;2024-01-10T12:06:19;100254.84;;;3.12;34.88
80149;BME280;69473;42.426;26.644;2024-01-10T12:08:45;100245.56;;;3.90;33.54
80149;BME280;69473;42.426;26.644;2024-01-10T12:11:11;100249.25;;;4.57;32.69
80149;BME280;69473;42.426;26.644;2024-01-10T12:13:36;100251.44;;;4.69;33.36
80149;BME280;69473;42.426;26.644;2024-01-10T12:16:02;100248.44;;;4.58;33.22
80149;BME280;69473;42.426;26.644;2024-01-10T12:18:28;100253.19;;;4.91;33.54
80149;BME280;69473;42.426;26.644;2024-01-10T12:20:54;100254.16;;;5.15;32.24
80149;BME280;69473;42.426;26.644;2024-01-10T12:23:19;100244.28;;;4.82;32.37
80149;BME280;69473;42.426;26.644;2024-01-10T12:25:45;100248.53;;;4.61;32.71
80149;BME280;69473;42.426;26.644;2024-01-10T12:28:16;100258.38;;;4.10;33.51
80149;BME280;69473;42.426;26.644;2024-01-10T12:30:42;100256.31;;;2.89;35.85
80149;BME280;69473;42.426;26.644;2024-01-10T12:33:09;100258.28;;;2.25;36.84
80149;BME280;69473;42.426;26.644;2024-01-10T12:35:34;100258.13;;;1.89;37.26
80149;BME280;69473;42.426;26.644;2024-01-10T12:38:00;100256.06;;;1.82;38.52
80149;BME280;69473;42.426;26.644;2024-01-10T12:40:25;100265.63;;;1.53;38.66
80149;BME280;69473;42.426;26.644;2024-01-10T12:43:05;100259.38;;;1.48;39.27
80149;BME280;69473;42.426;26.644;2024-01-10T12:45:31;100267.19;;;1.35;38.96
80149;BME280;69473;42.426;26.644;2024-01-10T12:47:59;100271.97;;;1.29;39.55
80149;BME280;69473;42.426;26.644;2024-01-10T12:50:25;100258.53;;;1.17;38.95
80149;BME280;69473;42.426;26.644;2024-01-10T12:52:51;100270.44;;;1.01;39.58